Terminal Aerodrome Forecast
Issued by NWS Tiyan, Guam

Current Version | Previous Version | Text Only | Print | Product List | Glossary On
Versions: 1 2 3 4 5 6 7 8 9 10 11 12 13 14 15
000
FTPQ31 PGUM 250527
TAFGUM
TAF
PGUM 250527Z 2506/2612 07017KT P6SM SCT027
     FM250900 07011KT P6SM FEW020 SCT050=

USA.gov is the U.S. government's official web portal to all federal, state and local government web resources and services.